Time;durP1;ratioP1;P1;durP2;ratioP2;P2;SDS_P1;SDS_P2;PMS_P1;PMS_P2;Temp;Humidity;BMP_temperature;BMP_pressure;BME280_temperature;BME280_humidity;BME280_pressure;Samples;Min_cycle;Max_cycle;Signal;HPM_P1;HPM_P2
2021/07/09 00:00:58;;;;;;;1.80;1.60;;;;;;;;;;5072702;28;20462;-49
2021/07/09 00:03:25;;;;;;;2.42;1.70;;;;;;;;;;5073566;28;20558;-50
2021/07/09 00:05:51;;;;;;;1.17;1.13;;;;;;;;;;5073246;28;20115;-49
2021/07/09 00:08:17;;;;;;;2.00;1.50;;;;;;;;;;5073489;28;20093;-49
2021/07/09 00:10:43;;;;;;;3.00;1.88;;;;;;;;;;5072659;28;20078;-49
2021/07/09 00:13:09;;;;;;;2.28;1.60;;;;;;;;;;5073460;28;20028;-49
2021/07/09 00:15:35;;;;;;;2.15;1.85;;;;;;;;;;5072975;28;20035;-49
2021/07/09 00:18:02;;;;;;;2.00;1.70;;;;;;;;;;5073472;28;20363;-49
2021/07/09 00:20:28;;;;;;;1.35;1.25;;;;;;;;;;5072866;28;20048;-50
2021/07/09 00:22:54;;;;;;;6.53;1.77;;;;;;;;;;5072712;28;20024;-49
2021/07/09 00:25:21;;;;;;;1.65;1.48;;;;;;;;;;5073162;28;20111;-50
2021/07/09 00:27:47;;;;;;;1.70;1.38;;;;;;;;;;5072959;28;20053;-49
2021/07/09 00:30:13;;;;;;;1.73;1.60;;;;;;;;;;5073244;28;20036;-49
2021/07/09 00:32:39;;;;;;;4.82;1.50;;;;;;;;;;5072349;28;20103;-49
2021/07/09 00:35:06;;;;;;;2.65;1.60;;;;;;;;;;5072525;28;20115;-49
2021/07/09 00:37:32;;;;;;;1.20;1.10;;;;;;;;;;5073006;28;20436;-50
2021/07/09 00:39:58;;;;;;;2.65;1.30;;;;;;;;;;5072959;28;20032;-50
2021/07/09 00:42:24;;;;;;;1.55;1.38;;;;;;;;;;5072249;28;20025;-49
2021/07/09 00:44:50;;;;;;;4.35;1.38;;;;;;;;;;5072577;28;20034;-49
2021/07/09 00:47:16;;;;;;;1.60;1.50;;;;;;;;;;5072807;28;20024;-49
2021/07/09 00:49:42;;;;;;;2.17;1.25;;;;;;;;;;5072261;28;20029;-49
2021/07/09 00:52:08;;;;;;;1.73;1.25;;;;;;;;;;5072011;28;20405;-50
2021/07/09 00:54:34;;;;;;;1.20;1.02;;;;;;;;;;5072430;28;20017;-50
2021/07/09 00:57:01;;;;;;;1.33;1.20;;;;;;;;;;5072995;28;20029;-49
2021/07/09 00:59:27;;;;;;;1.65;1.30;;;;;;;;;;5072783;28;20120;-50
2021/07/09 01:01:56;;;;;;;1.20;1.10;;;;;;;;;;5071595;28;20017;-49
2021/07/09 01:04:22;;;;;;;2.33;1.20;;;;;;;;;;5072432;28;20032;-50
2021/07/09 01:06:48;;;;;;;1.17;0.98;;;;;;;;;;5072416;28;20456;-49
2021/07/09 01:09:14;;;;;;;1.30;1.20;;;;;;;;;;5072753;28;20054;-49
2021/07/09 01:11:42;;;;;;;3.22;1.25;;;;;;;;;;5071779;28;20462;-49
2021/07/09 01:14:08;;;;;;;2.72;1.30;;;;;;;;;;5072689;28;20585;-49
2021/07/09 01:16:35;;;;;;;2.00;1.17;;;;;;;;;;5072434;28;20032;-49
2021/07/09 01:19:01;;;;;;;1.58;1.48;;;;;;;;;;5072396;28;20028;-49
2021/07/09 01:21:27;;;;;;;3.60;1.35;;;;;;;;;;5071412;28;20036;-49
2021/07/09 01:23:57;;;;;;;2.00;1.55;;;;;;;;;;5072869;28;20027;-49
2021/07/09 01:26:23;;;;;;;;;;;;;;;;;;5072889;28;20020;-50
2021/07/09 01:28:49;;;;;;;2.45;1.30;;;;;;;;;;5072161;28;20242;-50
2021/07/09 01:31:15;;;;;;;1.35;1.05;;;;;;;;;;5071352;28;20173;-49
2021/07/09 01:33:41;;;;;;;1.13;1.05;;;;;;;;;;5072654;28;20091;-50
2021/07/09 01:36:07;;;;;;;1.42;1.30;;;;;;;;;;5072558;28;20448;-49
2021/07/09 01:38:34;;;;;;;1.30;1.17;;;;;;;;;;5072404;28;20020;-49
2021/07/09 01:41:00;;;;;;;6.43;0.93;;;;;;;;;;5071219;28;20467;-50
2021/07/09 01:43:26;;;;;;;1.58;1.48;;;;;;;;;;5071953;28;20360;-49
2021/07/09 01:45:52;;;;;;;1.13;1.02;;;;;;;;;;5071759;28;20025;-50
2021/07/09 01:48:18;;;;;;;1.23;1.13;;;;;;;;;;5072472;28;20043;-49
2021/07/09 01:50:44;;;;;;;2.70;0.95;;;;;;;;;;5071407;28;20040;-49
2021/07/09 01:53:10;;;;;;;1.10;1.00;;;;;;;;;;5072147;28;20077;-49
2021/07/09 01:55:36;;;;;;;0.70;0.70;;;;;;;;;;5072009;28;20028;-49
2021/07/09 01:58:03;;;;;;;2.53;1.08;;;;;;;;;;5072264;28;20024;-49
2021/07/09 02:00:29;;;;;;;2.38;0.85;;;;;;;;;;5071922;28;20024;-49
2021/07/09 02:02:55;;;;;;;0.80;0.80;;;;;;;;;;5072005;28;20028;-50
2021/07/09 02:05:22;;;;;;;0.77;0.70;;;;;;;;;;5071857;28;20100;-49
2021/07/09 02:07:49;;;;;;;1.00;0.90;;;;;;;;;;5075973;28;20032;-49
2021/07/09 02:10:17;;;;;;;0.60;0.60;;;;;;;;;;5075739;28;20032;-50
2021/07/09 02:12:43;;;;;;;0.75;0.70;;;;;;;;;;5075086;28;20020;-50
2021/07/09 02:15:11;;;;;;;1.25;0.60;;;;;;;;;;5075192;28;20029;-50
2021/07/09 02:17:38;;;;;;;3.10;0.75;;;;;;;;;;5075568;28;20321;-49
2021/07/09 02:20:08;;;;;;;0.65;0.65;;;;;;;;;;5075449;28;20033;-49
2021/07/09 02:22:34;;;;;;;;;;;;;;;;;;5075169;28;20036;-49
2021/07/09 02:25:05;;;;;;;0.60;0.60;;;;;;;;;;5075364;28;19912;-49
2021/07/09 02:27:40;;;;;;;0.57;0.57;;;;;;;;;;5075080;28;20024;-49
2021/07/09 02:30:07;;;;;;;0.88;0.70;;;;;;;;;;5069475;28;20094;-48
2021/07/09 02:32:34;;;;;;;0.77;0.60;;;;;;;;;;5074301;28;20460;-49
2021/07/09 02:35:00;;;;;;;0.70;0.70;;;;;;;;;;5075243;28;20074;-48
2021/07/09 02:37:26;;;;;;;0.70;0.70;;;;;;;;;;5075209;28;20032;-49
2021/07/09 02:39:52;;;;;;;4.15;1.10;;;;;;;;;;5075235;28;20024;-49
2021/07/09 02:42:18;;;;;;;1.38;0.95;;;;;;;;;;5074584;28;20476;-49
2021/07/09 02:44:44;;;;;;;0.95;0.95;;;;;;;;;;5074861;28;20107;-50
2021/07/09 02:47:11;;;;;;;0.80;0.73;;;;;;;;;;5075228;28;20025;-49
2021/07/09 02:49:37;;;;;;;0.75;0.75;;;;;;;;;;5074771;28;20250;-50
2021/07/09 02:52:03;;;;;;;1.55;1.08;;;;;;;;;;5074290;28;20461;-49
2021/07/09 02:54:29;;;;;;;1.35;1.00;;;;;;;;;;5074832;28;20360;-49
2021/07/09 02:56:55;;;;;;;1.08;0.90;;;;;;;;;;5074950;28;20024;-48
2021/07/09 02:59:21;;;;;;;0.77;0.77;;;;;;;;;;5074248;28;20033;-48
2021/07/09 03:01:47;;;;;;;1.50;0.82;;;;;;;;;;5074264;28;20025;-49
2021/07/09 03:04:13;;;;;;;1.10;0.75;;;;;;;;;;5074466;28;20035;-48
2021/07/09 03:06:40;;;;;;;0.80;0.80;;;;;;;;;;5074940;28;20094;-49
2021/07/09 03:09:07;;;;;;;1.70;1.20;;;;;;;;;;5074236;28;20519;-49
2021/07/09 03:11:33;;;;;;;4.05;1.30;;;;;;;;;;5073961;28;20033;-49
2021/07/09 03:13:59;;;;;;;0.70;0.70;;;;;;;;;;5074609;28;20035;-49
2021/07/09 03:16:25;;;;;;;1.60;0.80;;;;;;;;;;5074530;28;20021;-49
2021/07/09 03:18:51;;;;;;;1.35;0.80;;;;;;;;;;5073130;28;20016;-49
2021/07/09 03:21:17;;;;;;;0.95;0.93;;;;;;;;;;5073515;28;20037;-49
2021/07/09 03:23:43;;;;;;;2.28;0.93;;;;;;;;;;5074431;28;20020;-48
2021/07/09 03:26:09;;;;;;;1.20;1.02;;;;;;;;;;5074027;28;20070;-49
2021/07/09 03:28:35;;;;;;;1.25;1.15;;;;;;;;;;5074657;28;20051;-49
2021/07/09 03:31:02;;;;;;;3.38;1.77;;;;;;;;;;5073253;28;20415;-48
2021/07/09 03:33:28;;;;;;;0.95;0.95;;;;;;;;;;5074589;28;20016;-49
2021/07/09 03:35:54;;;;;;;1.15;0.82;;;;;;;;;;5071506;28;20024;-49
2021/07/09 03:38:20;;;;;;;1.08;0.90;;;;;;;;;;5054050;28;20107;-49
2021/07/09 03:40:46;;;;;;;1.05;0.82;;;;;;;;;;5052855;28;20037;-49
2021/07/09 03:43:12;;;;;;;1.20;1.10;;;;;;;;;;5054418;28;20036;-49
2021/07/09 03:45:38;;;;;;;0.80;0.80;;;;;;;;;;5054186;28;20110;-49
2021/07/09 03:48:05;;;;;;;2.47;1.17;;;;;;;;;;5053631;28;20041;-49
2021/07/09 03:50:31;;;;;;;1.50;1.05;;;;;;;;;;5064011;28;20063;-49
2021/07/09 03:52:57;;;;;;;2.47;1.23;;;;;;;;;;5074091;28;20028;-49
2021/07/09 03:55:23;;;;;;;0.90;0.90;;;;;;;;;;5073178;28;20112;-50
2021/07/09 03:57:49;;;;;;;4.38;0.90;;;;;;;;;;5073721;28;20024;-49
2021/07/09 04:00:16;;;;;;;2.75;1.10;;;;;;;;;;5073752;28;20028;-49
2021/07/09 04:02:42;;;;;;;1.27;1.10;;;;;;;;;;5073167;28;20119;-49
2021/07/09 04:05:08;;;;;;;2.38;1.42;;;;;;;;;;5073473;28;20028;-51
2021/07/09 04:07:34;;;;;;;1.90;1.40;;;;;;;;;;5073381;28;20046;-48
2021/07/09 04:10:00;;;;;;;3.20;1.88;;;;;;;;;;5073273;28;20111;-48
2021/07/09 04:12:26;;;;;;;1.98;1.52;;;;;;;;;;5072926;28;20444;-49
2021/07/09 04:14:52;;;;;;;1.40;1.30;;;;;;;;;;5073617;28;20032;-49
2021/07/09 04:17:18;;;;;;;1.63;1.40;;;;;;;;;;5072813;28;20032;-49
2021/07/09 04:19:44;;;;;;;3.20;1.33;;;;;;;;;;5073149;28;20116;-48
2021/07/09 04:22:10;;;;;;;4.85;1.50;;;;;;;;;;5071219;28;20432;-48
2021/07/09 04:24:36;;;;;;;1.80;1.42;;;;;;;;;;5072727;28;20032;-49
2021/07/09 04:27:02;;;;;;;1.40;1.20;;;;;;;;;;5073389;28;20021;-49
2021/07/09 04:29:28;;;;;;;1.00;0.98;;;;;;;;;;5072858;28;20028;-49
2021/07/09 04:31:54;;;;;;;1.00;1.00;;;;;;;;;;5072170;28;20352;-49
2021/07/09 04:34:20;;;;;;;2.90;1.10;;;;;;;;;;5073406;28;20028;-49
2021/07/09 04:36:46;;;;;;;1.33;1.23;;;;;;;;;;5072848;28;20029;-49
2021/07/09 04:39:12;;;;;;;1.55;1.20;;;;;;;;;;5072886;28;20047;-49
2021/07/09 04:41:40;;;;;;;2.42;1.30;;;;;;;;;;5071920;28;20487;-49
2021/07/09 04:44:06;;;;;;;2.70;1.23;;;;;;;;;;5073331;28;20082;-49
2021/07/09 04:46:32;;;;;;;2.42;1.17;;;;;;;;;;5073133;28;20024;-49
2021/07/09 04:48:58;;;;;;;1.88;1.30;;;;;;;;;;5072956;28;20394;-49
2021/07/09 04:51:24;;;;;;;1.05;1.05;;;;;;;;;;5071982;28;20494;-49
2021/07/09 04:53:50;;;;;;;1.25;1.15;;;;;;;;;;5069094;28;20079;-49
2021/07/09 04:56:16;;;;;;;1.08;1.05;;;;;;;;;;5058959;28;20356;-49
2021/07/09 04:58:42;;;;;;;1.20;1.02;;;;;;;;;;5053195;28;20025;-48
2021/07/09 05:01:08;;;;;;;1.23;1.13;;;;;;;;;;5051897;28;20028;-49
2021/07/09 05:03:34;;;;;;;1.65;1.30;;;;;;;;;;5052593;28;20066;-48
2021/07/09 05:06:00;;;;;;;1.25;1.15;;;;;;;;;;5052560;28;20021;-50
2021/07/09 05:08:26;;;;;;;2.55;1.85;;;;;;;;;;5052243;28;20586;-49
2021/07/09 05:10:52;;;;;;;1.77;1.20;;;;;;;;;;5052066;28;20119;-49
2021/07/09 05:13:18;;;;;;;3.88;1.77;;;;;;;;;;5070099;28;20024;-48
2021/07/09 05:15:44;;;;;;;3.78;1.48;;;;;;;;;;5072451;28;20367;-49
2021/07/09 05:18:10;;;;;;;1.90;1.63;;;;;;;;;;5071949;28;20024;-48
2021/07/09 05:20:36;;;;;;;2.75;1.67;;;;;;;;;;5070734;28;20463;-49
2021/07/09 05:23:02;;;;;;;1.77;1.67;;;;;;;;;;5071978;28;20055;-48
2021/07/09 05:25:29;;;;;;;1.70;1.60;;;;;;;;;;5072566;28;20628;-49
2021/07/09 05:27:55;;;;;;;1.70;1.50;;;;;;;;;;5072004;28;20031;-48
2021/07/09 05:30:21;;;;;;;1.40;1.30;;;;;;;;;;5072193;28;20127;-49
2021/07/09 05:32:47;;;;;;;2.28;1.45;;;;;;;;;;5072007;28;20104;-49
2021/07/09 05:35:13;;;;;;;1.83;1.13;;;;;;;;;;5072906;28;20052;-49
2021/07/09 05:37:39;;;;;;;5.25;1.10;;;;;;;;;;5072105;28;20035;-49
2021/07/09 05:40:06;;;;;;;3.30;1.23;;;;;;;;;;5072123;28;20495;-48
2021/07/09 05:42:31;;;;;;;1.33;1.10;;;;;;;;;;5075295;28;20103;-48
2021/07/09 05:44:58;;;;;;;2.00;1.52;;;;;;;;;;5076559;28;20063;-49
2021/07/09 05:47:24;;;;;;;1.80;1.30;;;;;;;;;;5076381;28;20021;-48
2021/07/09 05:49:51;;;;;;;2.75;1.00;;;;;;;;;;5075620;28;20467;-48
2021/07/09 05:52:17;;;;;;;1.75;1.10;;;;;;;;;;5075484;28;20039;-49
2021/07/09 05:54:43;;;;;;;1.40;1.30;;;;;;;;;;5075999;28;20025;-48
2021/07/09 05:57:09;;;;;;;2.03;1.00;;;;;;;;;;5075808;28;20447;-48
2021/07/09 05:59:35;;;;;;;2.40;1.42;;;;;;;;;;5076247;28;20048;-49
2021/07/09 06:02:02;;;;;;;1.90;1.45;;;;;;;;;;5074727;28;20024;-49
2021/07/09 06:04:28;;;;;;;1.60;1.35;;;;;;;;;;5075414;28;20074;-48
2021/07/09 06:06:54;;;;;;;2.03;1.25;;;;;;;;;;5075708;28;20021;-49
2021/07/09 06:09:20;;;;;;;1.80;1.00;;;;;;;;;;5074943;28;20440;-49
2021/07/09 06:11:46;;;;;;;1.30;1.20;;;;;;;;;;5075302;28;20402;-48
2021/07/09 06:14:12;;;;;;;2.90;1.20;;;;;;;;;;5075508;28;20020;-48
2021/07/09 06:16:38;;;;;;;1.48;1.30;;;;;;;;;;5075817;28;20086;-48
2021/07/09 06:19:04;;;;;;;1.08;0.98;;;;;;;;;;5075229;28;20024;-50
2021/07/09 06:21:30;;;;;;;1.17;1.08;;;;;;;;;;5074860;28;20094;-49
2021/07/09 06:23:56;;;;;;;2.25;1.20;;;;;;;;;;5075377;28;20028;-49
2021/07/09 06:26:22;;;;;;;1.42;1.23;;;;;;;;;;5075600;28;20024;-48
2021/07/09 06:28:48;;;;;;;1.58;1.45;;;;;;;;;;5075716;28;20029;-49
2021/07/09 06:31:14;;;;;;;1.00;1.00;;;;;;;;;;5074531;28;20032;-49
2021/07/09 06:33:40;;;;;;;2.95;1.60;;;;;;;;;;5074892;28;20431;-48
2021/07/09 06:36:06;;;;;;;1.35;1.25;;;;;;;;;;5075105;28;20061;-48
2021/07/09 06:38:32;;;;;;;3.97;1.35;;;;;;;;;;5075548;28;20107;-49
2021/07/09 06:40:58;;;;;;;4.68;1.20;;;;;;;;;;5074618;28;20423;-49
2021/07/09 06:43:24;;;;;;;2.55;1.40;;;;;;;;;;5075117;28;20150;-48
2021/07/09 06:45:50;;;;;;;4.20;1.55;;;;;;;;;;5075439;28;20056;-49
2021/07/09 06:48:16;;;;;;;4.05;1.17;;;;;;;;;;5074780;28;20028;-49
2021/07/09 06:50:42;;;;;;;0.90;0.90;;;;;;;;;;5074404;28;20032;-49
2021/07/09 06:53:08;;;;;;;2.80;1.30;;;;;;;;;;5074765;28;20440;-48
2021/07/09 06:55:34;;;;;;;1.35;1.00;;;;;;;;;;5074863;28;20034;-49
2021/07/09 06:58:00;;;;;;;1.48;1.38;;;;;;;;;;5074718;28;20024;-49
2021/07/09 07:00:26;;;;;;;2.47;1.10;;;;;;;;;;5074838;28;20402;-49
2021/07/09 07:02:53;;;;;;;1.88;1.20;;;;;;;;;;5073705;28;20024;-49
2021/07/09 07:05:19;;;;;;;3.17;1.20;;;;;;;;;;5074867;28;20116;-48
2021/07/09 07:07:46;;;;;;;3.22;1.20;;;;;;;;;;5074563;28;20379;-49
2021/07/09 07:10:12;;;;;;;2.35;1.20;;;;;;;;;;5074479;28;20075;-49
2021/07/09 07:12:38;;;;;;;2.08;1.20;;;;;;;;;;5074137;28;20043;-49
2021/07/09 07:15:07;;;;;;;1.23;1.13;;;;;;;;;;5074754;28;20025;-48
2021/07/09 07:17:33;;;;;;;1.67;1.15;;;;;;;;;;5074285;28;20028;-49
2021/07/09 07:20:00;;;;;;;1.27;1.17;;;;;;;;;;5074554;28;20051;-49
2021/07/09 07:22:26;;;;;;;2.47;1.75;;;;;;;;;;5073296;28;20523;-48
2021/07/09 07:24:52;;;;;;;4.80;1.10;;;;;;;;;;5074231;28;20155;-49
2021/07/09 07:27:23;;;;;;;2.10;1.10;;;;;;;;;;5074242;28;20060;-48
2021/07/09 07:29:49;;;;;;;1.35;1.25;;;;;;;;;;5074359;28;20043;-48
2021/07/09 07:32:16;;;;;;;1.13;1.00;;;;;;;;;;5073519;28;20352;-49
2021/07/09 07:34:42;;;;;;;1.85;1.15;;;;;;;;;;5074497;28;20036;-49
2021/07/09 07:37:09;;;;;;;0.90;0.90;;;;;;;;;;5074038;28;20044;-48
2021/07/09 07:39:35;;;;;;;1.42;0.90;;;;;;;;;;5074308;28;20028;-48
2021/07/09 07:42:01;;;;;;;0.98;0.90;;;;;;;;;;5073173;28;20245;-49
2021/07/09 07:44:27;;;;;;;0.85;0.70;;;;;;;;;;5074057;28;20298;-48
2021/07/09 07:46:54;;;;;;;1.10;1.00;;;;;;;;;;5073646;28;20025;-48
2021/07/09 07:49:22;;;;;;;1.10;1.00;;;;;;;;;;5073492;28;20515;-49
2021/07/09 07:51:48;;;;;;;2.65;1.17;;;;;;;;;;5073144;28;20032;-48
2021/07/09 07:54:14;;;;;;;2.50;1.20;;;;;;;;;;5073910;28;20017;-48
2021/07/09 07:56:41;;;;;;;1.15;1.02;;;;;;;;;;5073898;28;20025;-48
2021/07/09 07:59:07;;;;;;;1.63;0.90;;;;;;;;;;5073051;28;20444;-48
2021/07/09 08:01:33;;;;;;;5.45;1.10;;;;;;;;;;5072777;28;20035;-49
2021/07/09 08:03:59;;;;;;;1.92;1.08;;;;;;;;;;5072790;28;20029;-48
2021/07/09 08:06:25;;;;;;;0.98;0.93;;;;;;;;;;5073841;28;20016;-49
2021/07/09 08:08:51;;;;;;;1.30;1.10;;;;;;;;;;5073267;28;20035;-48
2021/07/09 08:11:18;;;;;;;1.90;1.10;;;;;;;;;;5072710;28;20028;-49
2021/07/09 08:13:44;;;;;;;1.52;1.15;;;;;;;;;;5072819;28;20456;-49
2021/07/09 08:16:11;;;;;;;1.20;0.93;;;;;;;;;;5073447;28;20126;-48
2021/07/09 08:18:37;;;;;;;1.48;1.38;;;;;;;;;;5073297;28;20032;-48
2021/07/09 08:21:03;;;;;;;1.50;1.15;;;;;;;;;;5072425;28;20033;-49
2021/07/09 08:23:30;;;;;;;2.00;1.08;;;;;;;;;;5073306;28;20035;-49
2021/07/09 08:25:56;;;;;;;1.10;1.00;;;;;;;;;;5073167;28;20032;-49
2021/07/09 08:28:22;;;;;;;1.50;1.40;;;;;;;;;;5072898;28;20017;-48
2021/07/09 08:30:48;;;;;;;1.60;0.98;;;;;;;;;;5072605;28;20043;-48
2021/07/09 08:33:14;;;;;;;1.45;1.25;;;;;;;;;;5073201;28;20104;-49
2021/07/09 08:35:40;;;;;;;0.98;0.88;;;;;;;;;;5073301;28;20056;-48
2021/07/09 08:38:06;;;;;;;1.02;0.85;;;;;;;;;;5072480;28;20503;-48
2021/07/09 08:40:32;;;;;;;1.02;1.00;;;;;;;;;;5073038;28;20447;-48
2021/07/09 08:42:58;;;;;;;1.63;1.10;;;;;;;;;;5072771;28;20095;-49
2021/07/09 08:45:24;;;;;;;1.23;1.13;;;;;;;;;;5073209;28;20457;-48
2021/07/09 08:47:50;;;;;;;1.63;1.30;;;;;;;;;;5072897;28;20629;-49
2021/07/09 08:50:17;;;;;;;1.02;0.90;;;;;;;;;;5072715;28;20112;-49
2021/07/09 08:52:43;;;;;;;2.20;1.63;;;;;;;;;;5072258;28;20016;-49
2021/07/09 08:55:11;;;;;;;4.28;1.00;;;;;;;;;;5072781;28;20081;-48
2021/07/09 08:57:39;;;;;;;1.33;1.23;;;;;;;;;;5072389;28;20405;-49
2021/07/09 09:00:06;;;;;;;1.58;1.38;;;;;;;;;;5072719;28;20035;-49
2021/07/09 09:02:32;;;;;;;1.73;1.27;;;;;;;;;;5071943;28;20020;-49
2021/07/09 09:04:58;;;;;;;1.80;1.55;;;;;;;;;;5072672;28;20032;-48
2021/07/09 09:07:30;;;;;;;3.03;1.85;;;;;;;;;;5072796;28;20024;-49
2021/07/09 09:09:56;;;;;;;3.25;1.90;;;;;;;;;;5072155;28;20443;-49
2021/07/09 09:12:22;;;;;;;1.52;1.40;;;;;;;;;;5072122;28;20020;-49
2021/07/09 09:14:49;;;;;;;2.42;1.90;;;;;;;;;;5073477;28;20020;-49
2021/07/09 09:17:37;;;;;;;3.65;1.58;;;;;;;;;;5076932;28;20025;-49
2021/07/09 09:20:13;;;;;;;2.00;1.70;;;;;;;;;;5076766;28;20033;-49
2021/07/09 09:22:44;;;;;;;4.20;1.70;;;;;;;;;;5075858;28;20051;-49
2021/07/09 09:25:10;;;;;;;3.83;1.42;;;;;;;;;;5076729;28;20090;-48
2021/07/09 09:27:36;;;;;;;2.47;1.75;;;;;;;;;;5076624;28;20021;-48
2021/07/09 09:30:13;;;;;;;3.15;1.92;;;;;;;;;;5076169;28;20463;-49
2021/07/09 09:32:46;;;;;;;3.40;2.28;;;;;;;;;;5075867;28;20118;-48
2021/07/09 09:35:12;;;;;;;2.25;1.90;;;;;;;;;;5076772;28;20402;-49
2021/07/09 09:37:49;;;;;;;3.95;2.10;;;;;;;;;;5076860;28;20027;-48
2021/07/09 09:40:18;;;;;;;2.15;1.67;;;;;;;;;;5076362;28;20036;-48
2021/07/09 09:42:44;;;;;;;2.87;2.00;;;;;;;;;;5075693;28;20031;-49
2021/07/09 09:45:10;;;;;;;3.63;1.98;;;;;;;;;;5076060;28;20355;-48
2021/07/09 09:47:37;;;;;;;1.83;1.50;;;;;;;;;;5076310;28;20128;-48
2021/07/09 09:50:07;;;;;;;2.63;2.13;;;;;;;;;;5075732;28;20036;-49
2021/07/09 09:52:34;;;;;;;;;;;;;;;;;;5075888;28;20112;-49
2021/07/09 09:55:00;;;;;;;1.95;1.50;;;;;;;;;;5076290;28;19955;-49
2021/07/09 09:57:26;;;;;;;2.38;1.80;;;;;;;;;;5075874;28;20083;-49
2021/07/09 09:59:52;;;;;;;3.03;2.20;;;;;;;;;;5075665;28;20025;-49
2021/07/09 10:02:22;;;;;;;2.45;2.25;;;;;;;;;;5075166;28;20099;-48
2021/07/09 10:04:48;;;;;;;3.05;2.38;;;;;;;;;;5075846;28;20525;-48
2021/07/09 10:07:14;;;;;;;2.85;2.20;;;;;;;;;;5075782;28;20036;-48
2021/07/09 10:09:40;;;;;;;2.85;1.95;;;;;;;;;;5075496;28;20038;-48
2021/07/09 10:12:07;;;;;;;4.00;2.40;;;;;;;;;;5075153;28;20059;-48
2021/07/09 10:14:33;;;;;;;3.38;2.15;;;;;;;;;;5075588;28;20031;-48
2021/07/09 10:17:01;;;;;;;3.38;2.50;;;;;;;;;;5075821;28;20028;-49
2021/07/09 10:19:40;;;;;;;2.90;2.25;;;;;;;;;;5075517;28;20033;-49
2021/07/09 10:22:07;;;;;;;3.83;2.38;;;;;;;;;;5074821;28;20082;-48
2021/07/09 10:24:34;;;;;;;3.00;2.33;;;;;;;;;;5074303;28;20056;-49
2021/07/09 10:27:00;;;;;;;5.90;2.70;;;;;;;;;;5074907;28;20021;-49
2021/07/09 10:29:30;;;;;;;4.78;2.90;;;;;;;;;;5074921;28;20036;-49
2021/07/09 10:31:57;;;;;;;7.78;2.97;;;;;;;;;;5075227;28;20431;-49
2021/07/09 10:34:34;;;;;;;2.80;2.40;;;;;;;;;;5075322;28;20367;-49
2021/07/09 10:37:05;;;;;;;5.85;2.40;;;;;;;;;;5075476;28;20033;-50
2021/07/09 10:39:32;;;;;;;3.50;2.38;;;;;;;;;;5075054;28;20099;-49
2021/07/09 10:42:13;;;;;;;16.38;2.58;;;;;;;;;;5074582;28;20024;-49
2021/07/09 10:44:55;;;;;;;2.22;2.03;;;;;;;;;;5075007;28;20053;-49
2021/07/09 10:47:21;;;;;;;5.75;2.78;;;;;;;;;;5074937;28;20395;-49
2021/07/09 10:49:50;;;;;;;2.03;1.70;;;;;;;;;;5074214;28;20032;-49
2021/07/09 10:52:36;;;;;;;4.57;2.50;;;;;;;;;;5074664;28;20036;-50
2021/07/09 10:55:21;;;;;;;5.50;2.50;;;;;;;;;;5074778;28;20024;-49
2021/07/09 10:58:07;;;;;;;2.20;1.92;;;;;;;;;;5074887;28;20039;-49
2021/07/09 11:00:44;;;;;;;2.38;2.00;;;;;;;;;;5073696;28;20107;-49
2021/07/09 11:03:10;;;;;;;5.13;1.92;;;;;;;;;;5075267;28;20035;-49
2021/07/09 11:05:42;;;;;;;2.53;2.25;;;;;;;;;;5074946;28;20020;-49
2021/07/09 11:08:27;;;;;;;1.85;1.75;;;;;;;;;;5074513;28;20115;-49
2021/07/09 11:10:57;;;;;;;2.42;2.03;;;;;;;;;;5074062;28;20044;-49
2021/07/09 11:16:26;;;;;;;2.95;2.03;;;;;;;;;;5074313;28;20028;-49
2021/07/09 11:18:56;;;;;;;2.65;1.73;;;;;;;;;;5074276;28;20448;-49
2021/07/09 11:21:32;;;;;;;3.13;1.42;;;;;;;;;;5073634;28;20040;-49
2021/07/09 11:24:18;;;;;;;1.67;1.58;;;;;;;;;;5074470;28;20028;-49
2021/07/09 11:26:44;;;;;;;2.38;1.50;;;;;;;;;;5074798;28;20044;-49
2021/07/09 11:29:19;;;;;;;3.30;2.03;;;;;;;;;;5073921;28;20414;-49
2021/07/09 11:31:45;;;;;;;2.58;2.00;;;;;;;;;;5073677;28;20074;-48
2021/07/09 11:34:12;;;;;;;2.20;2.00;;;;;;;;;;5074145;28;20348;-49
2021/07/09 11:36:55;;;;;;;2.45;1.60;;;;;;;;;;5074440;28;20086;-49
2021/07/09 11:39:31;;;;;;;3.13;1.75;;;;;;;;;;5073083;28;20021;-48
2021/07/09 11:42:16;;;;;;;2.58;1.90;;;;;;;;;;5073169;28;20099;-49
2021/07/09 11:44:42;;;;;;;2.75;1.92;;;;;;;;;;5073670;28;20386;-49
2021/07/09 11:47:08;;;;;;;2.90;1.88;;;;;;;;;;5073947;28;20028;-48
2021/07/09 11:49:36;;;;;;;2.50;1.83;;;;;;;;;;5073718;28;20070;-48
2021/07/09 11:52:06;;;;;;;2.40;1.95;;;;;;;;;;5072708;28;20056;-48
2021/07/09 11:54:34;;;;;;;2.00;1.80;;;;;;;;;;5073876;28;20028;-49
2021/07/09 11:57:03;;;;;;;4.20;1.90;;;;;;;;;;5073859;28;20033;-49
2021/07/09 11:59:30;;;;;;;2.42;2.22;;;;;;;;;;5073065;28;20024;-49
2021/07/09 12:02:06;;;;;;;3.20;2.10;;;;;;;;;;5072861;28;20021;-49
2021/07/09 12:04:33;;;;;;;3.42;2.42;;;;;;;;;;5060667;28;20029;-49
2021/07/09 12:07:15;;;;;;;3.72;2.22;;;;;;;;;;5052919;28;20036;-49
2021/07/09 12:09:41;;;;;;;2.42;1.98;;;;;;;;;;5053667;28;20033;-48
2021/07/09 12:12:07;;;;;;;5.10;2.53;;;;;;;;;;5053144;28;20094;-48
2021/07/09 12:14:48;;;;;;;4.10;1.95;;;;;;;;;;5053595;28;20024;-48
2021/07/09 12:17:15;;;;;;;5.78;2.90;;;;;;;;;;5053287;28;20087;-49
2021/07/09 12:20:05;;;;;;;4.47;2.58;;;;;;;;;;5053068;28;20479;-48
2021/07/09 12:22:35;;;;;;;5.00;2.33;;;;;;;;;;5052768;28;20028;-49
2021/07/09 12:25:03;;;;;;;;;;;;;;;;;;5053921;28;20404;-49
2021/07/09 12:27:30;;;;;;;3.10;2.17;;;;;;;;;;5053355;28;19944;-49
2021/07/09 12:29:57;;;;;;;2.42;2.10;;;;;;;;;;5053009;28;20118;-49
2021/07/09 12:32:23;;;;;;;3.25;2.08;;;;;;;;;;5052535;28;20113;-48
2021/07/09 12:34:49;;;;;;;3.28;2.00;;;;;;;;;;5053041;28;20025;-49
2021/07/09 12:37:23;;;;;;;5.10;2.20;;;;;;;;;;5053171;28;20032;-48
2021/07/09 12:39:49;;;;;;;4.15;2.28;;;;;;;;;;5052996;28;20112;-49
2021/07/09 12:42:19;;;;;;;3.17;2.05;;;;;;;;;;5051868;28;20063;-49
2021/07/09 12:44:45;;;;;;;;;;;;;;;;;;5053373;28;20506;-48
2021/07/09 12:47:14;;;;;;;2.58;2.10;;;;;;;;;;5053013;28;19905;-49
2021/07/09 12:49:40;;;;;;;3.10;2.00;;;;;;;;;;5056437;28;20395;-49
2021/07/09 12:52:07;;;;;;;2.92;2.00;;;;;;;;;;5071815;28;20028;-49
2021/07/09 12:54:33;;;;;;;7.70;2.40;;;;;;;;;;5073206;28;20063;-49
2021/07/09 12:57:01;;;;;;;3.72;2.28;;;;;;;;;;5072469;28;20032;-49
2021/07/09 12:59:27;;;;;;;3.28;2.40;;;;;;;;;;5072733;28;20363;-49
2021/07/09 13:01:59;;;;;;;2.30;2.10;;;;;;;;;;5072152;28;20081;-49
2021/07/09 13:04:26;;;;;;;2.38;1.75;;;;;;;;;;5073094;28;20074;-49
2021/07/09 13:07:09;;;;;;;4.00;2.45;;;;;;;;;;5072382;28;20027;-49
2021/07/09 13:09:36;;;;;;;1.52;1.42;;;;;;;;;;5072572;28;20067;-49
2021/07/09 13:12:16;;;;;;;2.88;1.83;;;;;;;;;;5072192;28;20021;-49
2021/07/09 13:15:14;;;;;;;3.03;2.10;;;;;;;;;;5072934;28;20025;-49
2021/07/09 13:17:40;;;;;;;2.75;2.15;;;;;;;;;;5010011;28;20104;-49
2021/07/09 13:20:13;;;;;;;2.80;2.10;;;;;;;;;;5010417;28;20038;-49
2021/07/09 13:22:44;;;;;;;1.92;1.73;;;;;;;;;;5009967;28;20469;-49
2021/07/09 13:25:11;;;;;;;4.15;1.70;;;;;;;;;;5010399;28;20436;-49
2021/07/09 13:27:37;;;;;;;2.83;2.22;;;;;;;;;;5010222;28;20030;-49
2021/07/09 13:30:05;;;;;;;3.03;2.50;;;;;;;;;;5009733;28;20030;-50
2021/07/09 13:32:38;;;;;;;5.88;2.60;;;;;;;;;;5009502;28;20046;-49
2021/07/09 13:35:24;;;;;;;4.13;2.72;;;;;;;;;;5010519;28;20042;-49
2021/07/09 13:37:50;;;;;;;3.85;2.88;;;;;;;;;;5010051;28;20026;-50
2021/07/09 13:40:16;;;;;;;5.15;2.83;;;;;;;;;;5010257;28;20030;-49
2021/07/09 13:42:44;;;;;;;7.78;3.83;;;;;;;;;;5009363;28;20065;-50
2021/07/09 13:45:10;;;;;;;3.38;3.03;;;;;;;;;;5009786;28;20038;-50
2021/07/09 13:47:37;;;;;;;7.25;3.20;;;;;;;;;;5007035;28;20073;-49
2021/07/09 13:50:04;;;;;;;7.90;2.85;;;;;;;;;;5009648;28;20038;-50
2021/07/09 13:52:31;;;;;;;3.72;2.65;;;;;;;;;;5020683;28;20033;-50
2021/07/09 13:54:57;;;;;;;3.83;2.50;;;;;;;;;;5071852;28;20063;-49
2021/07/09 13:57:23;;;;;;;3.85;2.78;;;;;;;;;;5066512;28;20021;-49
2021/07/09 13:59:49;;;;;;;3.13;2.67;;;;;;;;;;5065343;28;20178;-50
2021/07/09 14:02:15;;;;;;;4.15;2.83;;;;;;;;;;5061008;28;20111;-50
2021/07/09 14:04:41;;;;;;;4.55;2.75;;;;;;;;;;5061937;28;20029;-49
2021/07/09 14:07:08;;;;;;;6.07;2.92;;;;;;;;;;5066737;28;20029;-49
2021/07/09 14:09:35;;;;;;;5.28;2.75;;;;;;;;;;5063728;28;20031;-49
2021/07/09 14:12:01;;;;;;;6.78;3.40;;;;;;;;;;5054996;28;20064;-49
2021/07/09 14:14:27;;;;;;;3.63;2.70;;;;;;;;;;5061193;28;20028;-50
2021/07/09 14:16:54;;;;;;;3.22;2.40;;;;;;;;;;5074847;28;20036;-51
2021/07/09 14:19:20;;;;;;;6.95;2.63;;;;;;;;;;5074902;28;20024;-51
2021/07/09 14:21:46;;;;;;;5.07;3.38;;;;;;;;;;5074218;28;20070;-51
2021/07/09 14:24:12;;;;;;;7.10;3.15;;;;;;;;;;5071961;28;20095;-51
2021/07/09 14:26:38;;;;;;;4.15;3.28;;;;;;;;;;5071966;28;20394;-51
2021/07/09 14:29:04;;;;;;;4.70;2.60;;;;;;;;;;5073260;28;20028;-51
2021/07/09 14:31:30;;;;;;;3.53;2.72;;;;;;;;;;5071622;28;20078;-51
2021/07/09 14:33:58;;;;;;;4.10;2.90;;;;;;;;;;5071802;28;20033;-51
2021/07/09 14:36:24;;;;;;;6.15;3.00;;;;;;;;;;5064622;28;20029;-51
2021/07/09 14:38:50;;;;;;;7.07;3.22;;;;;;;;;;5059950;28;20471;-51
2021/07/09 14:41:16;;;;;;;4.28;2.75;;;;;;;;;;5055786;28;20029;-51
2021/07/09 14:43:42;;;;;;;3.58;2.85;;;;;;;;;;5072213;28;20017;-51
2021/07/09 14:46:08;;;;;;;2.83;2.50;;;;;;;;;;5066170;28;20029;-51
2021/07/09 14:48:34;;;;;;;3.97;2.90;;;;;;;;;;5066318;28;20130;-51
2021/07/09 14:51:00;;;;;;;3.17;2.58;;;;;;;;;;5062245;28;20123;-51